Nepton, Kentucky
Current Conditions -  °F | °C
As of 10:55 PM on Wednesday 17 Dec 2014 (Local Time) from KFGX Reporting Station
Overcast Overcast  
Wind Chill: -5°   Ceiling: 1800
Heat Index: -2°   Visibility: 10mi
Dew Point: -5°   Wind: 6mph
Humidity: 77%   Direction: 300°WNW
Pressure: 30.26"   Gusts: NA
Location:  38.4071°N, 83.873°W
Report Text: KFGX 180355Z AUTO 30005KT 10SM OVC018 M02/M05 A3026 RMK AO2 T10181053
Loading
Personal Weather Stations






























Interactive Weather Map New forecast layout! Learn more

10-Day Weather Forecast

Advertisements
Track Severe Weather on mobile